CheckWX is a tool to help pilots better visualize weather data.  It is not intended as a substitute for an official pre-flight weather briefing.

09:22:40 UTC

S39 METAR
Prineville Airport
Prineville, Oregon, USA
Current

8 mins ago

KS39 230915Z AUTO 00000KT 1 1/2SM BR OVC036 09/08 A3009 RMK AO2
Observed
Sep-23 @ 09:15 UTC
Visibility
1 1/2 SM
Flight Rules
IFR
Conditions
Mist
Cloud Levels
  • Overcast at 3,600' AGL
Temperature
C / 48°F
Dewpoint
C / 46°F
Humidity
94%
Altimeter
30.09" Hg
Pressure
1018.92 hPa
Previous

28 mins ago

KS39 230855Z AUTO 00000KT 9SM FEW002 OVC036 08/07 A3009 RMK AO2
Observed
Sep-23 @ 08:55 UTC
Visibility
9 SM
Flight Rules
VFR
Cloud Levels
  • Few at 200' AGL
  • Overcast at 3,600' AGL
Temperature
C / 46°F
Dewpoint
C / 45°F
Humidity
93%
Altimeter
30.09" Hg
Pressure
1018.92 hPa
Previous

48 mins ago

KS39 230835Z AUTO 00000KT 1/4SM FG BKN002 OVC036 07/07 A3009 RMK AO2
Observed
Sep-23 @ 08:35 UTC
Visibility
1/4 SM
Flight Rules
LIFR
Conditions
Fog
Cloud Levels
  • Broken at 200' AGL
  • Overcast at 3,600' AGL
Temperature
C / 45°F
Dewpoint
C / 45°F
Humidity
100%
Altimeter
30.09" Hg
Pressure
1018.92 hPa